TimeEST,TemperatureF,Dew PointF,Humidity,Sea Level PressureIn,VisibilityMPH,Wind Direction,Wind SpeedMPH,Gust SpeedMPH,PrecipitationIn,Events,Conditions,WindDirDegrees,DateUTC
12:53 AM,35.1,28.9,78,29.18,10.0,SSW,6.9,-,N/A,,Overcast,210,2012-12-21 05:53:00
1:31 AM,33.8,28.4,81,29.17,10.0,SW,5.8,-,N/A,,Overcast,220,2012-12-21 06:31:00
1:53 AM,34.0,28.9,82,29.19,8.0,SW,4.6,-,0.00,Snow,Light Snow,220,2012-12-21 06:53:00
2:07 AM,33.8,28.4,81,29.17,6.0,SSW,5.8,-,0.00,Snow,Light Snow,210,2012-12-21 07:07:00
2:53 AM,33.1,30.0,89,29.21,5.0,SW,4.6,-,0.00,Snow,Light Snow,230,2012-12-21 07:53:00
3:22 AM,33.8,30.2,87,29.20,4.0,WSW,5.8,-,0.00,Snow,Light Snow,250,2012-12-21 08:22:00
3:32 AM,33.8,30.2,87,29.20,2.0,WSW,5.8,-,0.01,Snow,Light Snow,250,2012-12-21 08:32:00
3:45 AM,33.8,30.2,87,29.20,2.5,WSW,6.9,-,0.01,Snow,Light Snow,250,2012-12-21 08:45:00
3:53 AM,33.1,30.9,92,29.22,2.0,WSW,8.1,-,0.01,Snow,Light Snow,240,2012-12-21 08:53:00
4:01 AM,33.8,30.2,87,29.20,1.8,WSW,6.9,-,0.00,Snow,Light Snow,250,2012-12-21 09:01:00
4:09 AM,33.8,30.2,87,29.21,1.8,WSW,8.1,-,0.01,Snow,Light Snow,250,2012-12-21 09:09:00
4:16 AM,33.8,30.2,87,29.21,2.0,West,10.4,-,0.01,Snow,Light Snow,260,2012-12-21 09:16:00
4:53 AM,33.1,30.9,92,29.25,2.0,WNW,15.0,24.2,0.03,Snow,Light Snow,300,2012-12-21 09:53:00
5:08 AM,33.8,28.4,81,29.24,2.5,NW,19.6,28.8,0.00,Snow,Light Snow,310,2012-12-21 10:08:00
5:23 AM,32.0,28.4,87,29.25,2.5,NW,20.7,31.1,0.00,Snow,Light Snow,310,2012-12-21 10:23:00
5:37 AM,32.0,28.4,87,29.26,1.8,NW,19.6,27.6,0.00,Snow,Light Snow,310,2012-12-21 10:37:00
5:46 AM,30.2,28.4,93,29.27,1.0,NW,18.4,31.1,0.00,Snow,Light Snow,310,2012-12-21 10:46:00
5:53 AM,30.9,28.9,92,29.30,1.0,NW,20.7,31.1,0.00,Snow,Light Snow,310,2012-12-21 10:53:00
6:25 AM,30.2,28.4,93,29.30,1.0,NW,16.1,26.5,0.02,Snow,Light Snow,310,2012-12-21 11:25:00
6:36 AM,30.2,28.4,93,29.31,1.0,NW,12.7,26.5,0.02,Snow,Light Snow,320,2012-12-21 11:36:00
6:41 AM,30.2,28.4,93,29.32,0.8,NW,11.5,-,0.03,Snow,Light Snow,320,2012-12-21 11:41:00
6:51 AM,30.2,28.4,93,29.32,0.8,NW,16.1,26.5,0.03,Snow,Light Snow,310,2012-12-21 11:51:00
6:53 AM,30.9,28.0,89,29.34,0.8,NW,18.4,26.5,0.04,Snow,Light Snow,320,2012-12-21 11:53:00
7:06 AM,30.2,28.4,93,29.34,0.8,NW,16.1,26.5,0.00,Snow,Light Snow,310,2012-12-21 12:06:00
7:27 AM,30.2,26.6,86,29.35,1.0,NW,16.1,26.5,0.02,Snow,Light Snow,310,2012-12-21 12:27:00
7:35 AM,30.2,26.6,86,29.36,1.0,NW,18.4,26.5,0.02,Snow,Light Snow,310,2012-12-21 12:35:00
7:53 AM,30.0,27.0,88,29.39,1.0,NW,19.6,27.6,0.02,Snow,Light Snow,310,2012-12-21 12:53:00
8:24 AM,30.2,26.6,86,29.39,0.5,NW,18.4,32.2,0.01,Fog-Snow,Snow,310,2012-12-21 13:24:00
8:50 AM,30.2,26.6,86,29.41,0.8,NW,20.7,35.7,0.02,Snow,Light Snow,310,2012-12-21 13:50:00
8:53 AM,30.0,26.1,85,29.44,0.8,NW,20.7,31.1,0.02,Snow,Light Snow,320,2012-12-21 13:53:00
9:46 AM,28.4,24.8,86,29.45,0.8,NW,18.4,33.4,0.01,Snow,Light Snow,320,2012-12-21 14:46:00
9:53 AM,28.9,25.0,85,29.47,0.8,NW,17.3,32.2,0.01,Snow,Light Snow,320,2012-12-21 14:53:00
9:59 AM,30.2,24.8,80,29.46,1.5,NW,19.6,31.1,0.00,Snow,Light Snow,310,2012-12-21 14:59:00
10:22 AM,30.2,24.8,80,29.47,2.5,NW,24.2,38.0,0.00,Snow,Light Snow,310,2012-12-21 15:22:00
10:35 AM,30.2,24.8,80,29.49,1.5,NW,24.2,34.5,0.00,Snow,Light Snow,310,2012-12-21 15:35:00
10:53 AM,30.0,24.1,79,29.53,1.5,NW,23.0,35.7,0.00,Snow,Light Snow,310,2012-12-21 15:53:00
11:01 AM,30.2,24.8,80,29.50,1.2,NW,19.6,35.7,0.00,Snow,Light Snow,320,2012-12-21 16:01:00
11:41 AM,28.4,24.8,86,29.52,0.8,NW,24.2,32.2,0.00,Snow,Light Snow,320,2012-12-21 16:41:00
11:53 AM,30.0,25.0,82,29.56,1.0,NW,19.6,29.9,0.00,Snow,Light Snow,320,2012-12-21 16:53:00
12:35 PM,30.2,24.8,80,29.55,1.5,NW,18.4,26.5,0.01,Snow,Light Snow,320,2012-12-21 17:35:00
12:53 PM,30.0,25.0,82,29.59,2.5,NW,19.6,31.1,0.01,Snow,Light Snow,320,2012-12-21 17:53:00
1:02 PM,30.2,24.8,80,29.56,4.0,NW,19.6,27.6,0.00,Snow,Light Snow,310,2012-12-21 18:02:00
1:49 PM,30.2,24.8,80,29.59,5.0,NW,17.3,26.5,0.00,Snow,Light Snow,320,2012-12-21 18:49:00
1:53 PM,30.9,25.0,79,29.62,6.0,NW,18.4,26.5,0.00,Snow,Light Snow,320,2012-12-21 18:53:00
2:03 PM,30.2,24.8,80,29.59,7.0,NW,12.7,27.6,0.00,Snow,Light Snow,310,2012-12-21 19:03:00
2:14 PM,30.2,24.8,80,29.60,8.0,NW,19.6,26.5,0.00,Snow,Light Snow,320,2012-12-21 19:14:00
2:53 PM,32.0,25.0,75,29.65,5.0,NW,17.3,27.6,0.00,Snow,Light Snow,320,2012-12-21 19:53:00
3:53 PM,32.0,24.1,73,29.69,10.0,NW,28.8,38.0,0.00,,Overcast,310,2012-12-21 20:53:00
4:53 PM,33.1,24.1,70,29.73,10.0,NW,17.3,31.1,N/A,,Overcast,310,2012-12-21 21:53:00
5:53 PM,33.1,24.1,70,29.78,10.0,NW,21.9,29.9,N/A,,Overcast,310,2012-12-21 22:53:00
6:53 PM,32.0,23.0,69,29.82,10.0,NW,25.3,35.7,N/A,,Overcast,320,2012-12-21 23:53:00
7:53 PM,32.0,21.9,66,29.86,10.0,NW,25.3,39.1,N/A,,Overcast,320,2012-12-22 00:53:00
8:32 PM,32.0,21.2,64,29.85,10.0,NW,16.1,27.6,N/A,,Overcast,320,2012-12-22 01:32:00
8:53 PM,32.0,21.9,66,29.89,10.0,NW,19.6,33.4,N/A,,Overcast,320,2012-12-22 01:53:00
9:53 PM,32.0,21.9,66,29.92,10.0,NW,20.7,32.2,N/A,,Overcast,320,2012-12-22 02:53:00
10:53 PM,30.9,21.0,67,29.95,10.0,NW,16.1,26.5,N/A,,Mostly Cloudy,310,2012-12-22 03:53:00
11:53 PM,30.9,21.9,69,29.97,10.0,WNW,19.6,24.2,N/A,,Overcast,300,2012-12-22 04:53:00